OSOK1: Oswego hwy 160

Data processed at Fri Mar 09 2018 23:49


All information presented herein is the property of the government of the United States of America and may be revised or deleted at any time without prior notice.
Dissemination of this information without the expressed written consent of the Public Affairs Office, Tulsa District U.S. Army Corps of Engineers is strictly prohibited.
These data are gathered electronically and, as presented, have not undergone any form of quality control. These data are not guaranteed to be valid or correct.
Go to home page.
Go to station list.

Upstream stations:

Downstream station:
Previous Day
Next Day
Current Day
    
SHEF ID:       OSOK1     Oswego hwy 160
STATION TYPE:  

               PRECIP     STAGE  RIV-FLOW   VOLTAGE  BAT-LOAD
                   in        ft       cfs      volt      volt
              Ccp-Rev   Ccp-Rev   Ccp-Rev   Ccp-Rev   Ccp-Rev
(US/Central)
03/07 00:00      0.00      9.24       636     12.65     12.49
03/07 01:00      0.00      9.21       625     12.65     12.49
03/07 02:00      0.00      9.25       639     12.57     12.49
03/07 03:00      0.00      9.22       628     12.57     12.41
03/07 04:00      0.00      9.23       632     12.57     12.41
03/07 05:00      0.00      9.26       643     12.57     12.41
03/07 06:00      0.00      9.23       632     12.57     12.41
03/07 07:00      0.00      9.23       632     12.57     12.41
03/07 08:00      0.00      9.23       632     12.57     12.41
03/07 09:00      0.00      9.21       625     13.60     13.44
03/07 10:00      0.00      9.20       621     13.53     13.37
03/07 11:00      0.00      9.21       625     13.53     13.60
03/07 12:00      0.00      9.21       625     13.53     14.00
03/07 13:00      0.00      9.22       628     13.53     13.60
03/07 14:00      0.00      9.17       588     13.53     13.53
03/07 15:00      0.00      9.18       599     13.68     13.53
03/07 16:00      0.00      9.19       610     13.68     13.29
03/07 17:00      0.00      9.15       567     13.60     13.21
03/07 18:00      0.00      9.16       577     13.05     13.05
03/07 19:00      0.00      9.16       577     12.81     12.73
03/07 20:00      0.00      9.17       588     12.73     12.65
03/07 21:00      0.00      9.16       577     12.73     12.57
03/07 22:00      0.00      9.15       567     12.65     12.57
03/07 23:00      0.00      9.15       567     12.65     12.57